sensor_id;sensor_type;location;lat;lon;timestamp;P1;durP1;ratioP1;P2;durP2;ratioP2
35699;SDS011;21818;51.078;12.108;2024-03-23T00:54:04;22.30;;;12.32;;
35699;SDS011;21818;51.078;12.108;2024-03-23T00:56:29;21.35;;;13.63;;
35699;SDS011;21818;51.078;12.108;2024-03-23T00:58:55;24.13;;;13.73;;
35699;SDS011;21818;51.078;12.108;2024-03-23T01:01:20;22.10;;;14.35;;
35699;SDS011;21818;51.078;12.108;2024-03-23T01:03:46;23.30;;;14.20;;
35699;SDS011;21818;51.078;12.108;2024-03-23T01:06:12;25.83;;;14.40;;
35699;SDS011;21818;51.078;12.108;2024-03-23T01:08:37;23.42;;;14.60;;
35699;SDS011;21818;51.078;12.108;2024-03-23T01:11:03;23.35;;;14.35;;
35699;SDS011;21818;51.078;12.108;2024-03-23T01:13:29;29.85;;;15.32;;
35699;SDS011;21818;51.078;12.108;2024-03-23T01:15:55;27.33;;;15.73;;
35699;SDS011;21818;51.078;12.108;2024-03-23T01:18:23;27.35;;;17.38;;
35699;SDS011;21818;51.078;12.108;2024-03-23T01:20:49;28.15;;;16.30;;
35699;SDS011;21818;51.078;12.108;2024-03-23T01:23:15;25.60;;;15.95;;
35699;SDS011;21818;51.078;12.108;2024-03-23T01:25:40;28.25;;;16.45;;
35699;SDS011;21818;51.078;12.108;2024-03-23T01:28:06;28.23;;;16.83;;
35699;SDS011;21818;51.078;12.108;2024-03-23T01:30:32;29.65;;;17.27;;
35699;SDS011;21818;51.078;12.108;2024-03-23T01:33:02;30.52;;;17.23;;
35699;SDS011;21818;51.078;12.108;2024-03-23T01:35:27;30.15;;;17.17;;
35699;SDS011;21818;51.078;12.108;2024-03-23T01:37:53;28.15;;;16.90;;
35699;SDS011;21818;51.078;12.108;2024-03-23T01:40:19;28.55;;;16.02;;
35699;SDS011;21818;51.078;12.108;2024-03-23T01:42:57;30.65;;;17.05;;
35699;SDS011;21818;51.078;12.108;2024-03-23T01:45:23;33.33;;;18.17;;
35699;SDS011;21818;51.078;12.108;2024-03-23T01:47:50;32.65;;;17.17;;
35699;SDS011;21818;51.078;12.108;2024-03-23T01:50:16;30.80;;;16.52;;
35699;SDS011;21818;51.078;12.108;2024-03-23T01:52:42;32.40;;;17.42;;
35699;SDS011;21818;51.078;12.108;2024-03-23T01:55:08;33.65;;;18.42;;
35699;SDS011;21818;51.078;12.108;2024-03-23T01:57:33;32.25;;;19.30;;
35699;SDS011;21818;51.078;12.108;2024-03-23T01:59:59;30.98;;;17.50;;
35699;SDS011;21818;51.078;12.108;2024-03-23T02:02:25;30.75;;;16.73;;
35699;SDS011;21818;51.078;12.108;2024-03-23T02:04:50;28.77;;;16.38;;
35699;SDS011;21818;51.078;12.108;2024-03-23T02:07:16;29.77;;;15.98;;
35699;SDS011;21818;51.078;12.108;2024-03-23T02:09:42;28.52;;;16.70;;
35699;SDS011;21818;51.078;12.108;2024-03-23T02:12:08;24.30;;;13.55;;
35699;SDS011;21818;51.078;12.108;2024-03-23T02:14:34;21.63;;;13.00;;
35699;SDS011;21818;51.078;12.108;2024-03-23T02:16:59;18.45;;;11.80;;
35699;SDS011;21818;51.078;12.108;2024-03-23T02:19:25;18.38;;;10.85;;
35699;SDS011;21818;51.078;12.108;2024-03-23T02:21:50;20.08;;;11.30;;
35699;SDS011;21818;51.078;12.108;2024-03-23T02:24:16;18.38;;;10.60;;
35699;SDS011;21818;51.078;12.108;2024-03-23T02:26:41;20.50;;;10.68;;
35699;SDS011;21818;51.078;12.108;2024-03-23T02:29:07;16.50;;;10.18;;
35699;SDS011;21818;51.078;12.108;2024-03-23T02:31:34;18.83;;;9.68;;
35699;SDS011;21818;51.078;12.108;2024-03-23T02:33:59;17.25;;;10.13;;
35699;SDS011;21818;51.078;12.108;2024-03-23T02:36:25;15.18;;;9.55;;
35699;SDS011;21818;51.078;12.108;2024-03-23T02:38:51;15.90;;;8.90;;
35699;SDS011;21818;51.078;12.108;2024-03-23T02:41:17;13.05;;;8.32;;
35699;SDS011;21818;51.078;12.108;2024-03-23T02:43:48;13.93;;;8.43;;
35699;SDS011;21818;51.078;12.108;2024-03-23T02:46:16;12.25;;;8.20;;
35699;SDS011;21818;51.078;12.108;2024-03-23T02:48:42;12.10;;;6.88;;
35699;SDS011;21818;51.078;12.108;2024-03-23T02:51:09;11.10;;;6.75;;
35699;SDS011;21818;51.078;12.108;2024-03-23T02:53:34;9.32;;;5.47;;
35699;SDS011;21818;51.078;12.108;2024-03-23T02:56:00;9.32;;;6.30;;
35699;SDS011;21818;51.078;12.108;2024-03-23T02:58:26;14.15;;;7.25;;
35699;SDS011;21818;51.078;12.108;2024-03-23T03:00:51;11.40;;;6.10;;
35699;SDS011;21818;51.078;12.108;2024-03-23T03:03:17;8.95;;;5.85;;
35699;SDS011;21818;51.078;12.108;2024-03-23T03:05:42;10.23;;;5.70;;
35699;SDS011;21818;51.078;12.108;2024-03-23T03:08:08;9.40;;;6.05;;
35699;SDS011;21818;51.078;12.108;2024-03-23T03:10:34;9.05;;;5.70;;
35699;SDS011;21818;51.078;12.108;2024-03-23T03:13:01;10.95;;;5.80;;
35699;SDS011;21818;51.078;12.108;2024-03-23T03:15:27;9.40;;;5.78;;
35699;SDS011;21818;51.078;12.108;2024-03-23T03:17:53;8.63;;;6.10;;
35699;SDS011;21818;51.078;12.108;2024-03-23T03:20:18;6.85;;;4.93;;
35699;SDS011;21818;51.078;12.108;2024-03-23T03:22:44;8.15;;;5.45;;
35699;SDS011;21818;51.078;12.108;2024-03-23T03:25:09;11.23;;;5.35;;
35699;SDS011;21818;51.078;12.108;2024-03-23T03:27:35;9.70;;;5.47;;
35699;SDS011;21818;51.078;12.108;2024-03-23T03:30:01;12.27;;;5.80;;
35699;SDS011;21818;51.078;12.108;2024-03-23T03:32:30;7.30;;;4.47;;
35699;SDS011;21818;51.078;12.108;2024-03-23T03:34:55;8.93;;;5.38;;
35699;SDS011;21818;51.078;12.108;2024-03-23T03:37:21;8.90;;;5.00;;
35699;SDS011;21818;51.078;12.108;2024-03-23T03:39:47;8.32;;;4.47;;
35699;SDS011;21818;51.078;12.108;2024-03-23T03:42:12;8.93;;;4.90;;
35699;SDS011;21818;51.078;12.108;2024-03-23T03:44:38;8.70;;;5.13;;
35699;SDS011;21818;51.078;12.108;2024-03-23T03:47:04;8.07;;;4.20;;
35699;SDS011;21818;51.078;12.108;2024-03-23T03:49:30;9.13;;;4.97;;
35699;SDS011;21818;51.078;12.108;2024-03-23T03:51:56;9.63;;;5.82;;
35699;SDS011;21818;51.078;12.108;2024-03-23T03:54:22;8.50;;;4.55;;
35699;SDS011;21818;51.078;12.108;2024-03-23T03:56:47;9.05;;;5.15;;
35699;SDS011;21818;51.078;12.108;2024-03-23T03:59:13;6.63;;;4.07;;
35699;SDS011;21818;51.078;12.108;2024-03-23T04:01:39;8.63;;;5.00;;
35699;SDS011;21818;51.078;12.108;2024-03-23T04:04:05;8.52;;;4.95;;
35699;SDS011;21818;51.078;12.108;2024-03-23T04:06:31;7.97;;;4.60;;
35699;SDS011;21818;51.078;12.108;2024-03-23T04:08:58;9.15;;;4.88;;
35699;SDS011;21818;51.078;12.108;2024-03-23T04:11:23;8.38;;;4.95;;
35699;SDS011;21818;51.078;12.108;2024-03-23T04:13:49;7.82;;;4.68;;
35699;SDS011;21818;51.078;12.108;2024-03-23T04:16:24;6.55;;;4.40;;
35699;SDS011;21818;51.078;12.108;2024-03-23T04:18:51;9.25;;;4.75;;
35699;SDS011;21818;51.078;12.108;2024-03-23T04:21:17;9.20;;;4.65;;
35699;SDS011;21818;51.078;12.108;2024-03-23T04:23:42;8.45;;;5.25;;
35699;SDS011;21818;51.078;12.108;2024-03-23T04:26:08;11.27;;;5.43;;
35699;SDS011;21818;51.078;12.108;2024-03-23T04:28:33;8.25;;;4.72;;
35699;SDS011;21818;51.078;12.108;2024-03-23T04:31:03;12.90;;;5.78;;
35699;SDS011;21818;51.078;12.108;2024-03-23T04:33:29;13.00;;;5.18;;
35699;SDS011;21818;51.078;12.108;2024-03-23T04:35:54;10.27;;;5.63;;
35699;SDS011;21818;51.078;12.108;2024-03-23T04:38:20;13.02;;;5.13;;
35699;SDS011;21818;51.078;12.108;2024-03-23T04:40:53;12.20;;;6.30;;
35699;SDS011;21818;51.078;12.108;2024-03-23T04:43:22;9.55;;;4.93;;
35699;SDS011;21818;51.078;12.108;2024-03-23T04:45:48;11.55;;;5.43;;
35699;SDS011;21818;51.078;12.108;2024-03-23T04:48:13;10.00;;;5.43;;
35699;SDS011;21818;51.078;12.108;2024-03-23T04:50:39;13.68;;;5.13;;
35699;SDS011;21818;51.078;12.108;2024-03-23T04:53:06;12.18;;;5.63;;
35699;SDS011;21818;51.078;12.108;2024-03-23T04:55:32;12.27;;;5.22;;
35699;SDS011;21818;51.078;12.108;2024-03-23T04:57:57;12.52;;;5.88;;
35699;SDS011;21818;51.078;12.108;2024-03-23T05:00:23;11.70;;;5.10;;
35699;SDS011;21818;51.078;12.108;2024-03-23T05:02:50;13.55;;;5.57;;
35699;SDS011;21818;51.078;12.108;2024-03-23T05:05:15;8.23;;;4.55;;
35699;SDS011;21818;51.078;12.108;2024-03-23T05:07:41;10.63;;;4.13;;
35699;SDS011;21818;51.078;12.108;2024-03-23T05:10:07;13.27;;;4.93;;
35699;SDS011;21818;51.078;12.108;2024-03-23T05:12:36;7.22;;;4.57;;
35699;SDS011;21818;51.078;12.108;2024-03-23T05:15:02;9.20;;;4.95;;
35699;SDS011;21818;51.078;12.108;2024-03-23T05:17:30;9.32;;;4.80;;
35699;SDS011;21818;51.078;12.108;2024-03-23T05:19:56;10.80;;;4.88;;
35699;SDS011;21818;51.078;12.108;2024-03-23T05:22:22;9.77;;;4.32;;
35699;SDS011;21818;51.078;12.108;2024-03-23T05:24:48;11.80;;;5.10;;
35699;SDS011;21818;51.078;12.108;2024-03-23T05:27:13;9.77;;;5.03;;
35699;SDS011;21818;51.078;12.108;2024-03-23T05:29:39;9.55;;;3.80;;
35699;SDS011;21818;51.078;12.108;2024-03-23T05:32:05;11.00;;;4.50;;
35699;SDS011;21818;51.078;12.108;2024-03-23T05:34:31;8.20;;;4.32;;
35699;SDS011;21818;51.078;12.108;2024-03-23T05:36:56;9.02;;;4.63;;
35699;SDS011;21818;51.078;12.108;2024-03-23T05:39:22;10.70;;;5.20;;
35699;SDS011;21818;51.078;12.108;2024-03-23T05:41:48;11.27;;;5.07;;
35699;SDS011;21818;51.078;12.108;2024-03-23T05:44:14;8.20;;;4.15;;
35699;SDS011;21818;51.078;12.108;2024-03-23T05:46:40;9.07;;;4.20;;
35699;SDS011;21818;51.078;12.108;2024-03-23T05:49:06;9.90;;;4.25;;
35699;SDS011;21818;51.078;12.108;2024-03-23T05:51:31;9.23;;;4.18;;
35699;SDS011;21818;51.078;12.108;2024-03-23T05:53:57;8.32;;;4.10;;
35699;SDS011;21818;51.078;12.108;2024-03-23T05:56:22;7.35;;;3.95;;
35699;SDS011;21818;51.078;12.108;2024-03-23T05:58:48;12.15;;;3.97;;
35699;SDS011;21818;51.078;12.108;2024-03-23T06:01:13;10.07;;;4.28;;
35699;SDS011;21818;51.078;12.108;2024-03-23T06:03:39;7.57;;;4.35;;
35699;SDS011;21818;51.078;12.108;2024-03-23T06:06:05;7.75;;;3.88;;
35699;SDS011;21818;51.078;12.108;2024-03-23T06:08:35;12.15;;;5.32;;
35699;SDS011;21818;51.078;12.108;2024-03-23T06:11:00;10.93;;;4.28;;
35699;SDS011;21818;51.078;12.108;2024-03-23T06:13:26;11.07;;;4.95;;
35699;SDS011;21818;51.078;12.108;2024-03-23T06:15:55;13.48;;;4.78;;
35699;SDS011;21818;51.078;12.108;2024-03-23T06:18:22;9.10;;;4.50;;
35699;SDS011;21818;51.078;12.108;2024-03-23T06:20:47;8.65;;;4.53;;
35699;SDS011;21818;51.078;12.108;2024-03-23T06:23:13;9.70;;;4.70;;
35699;SDS011;21818;51.078;12.108;2024-03-23T06:25:39;8.15;;;4.18;;
35699;SDS011;21818;51.078;12.108;2024-03-23T06:28:05;9.63;;;4.30;;
35699;SDS011;21818;51.078;12.108;2024-03-23T06:30:31;8.63;;;4.18;;
35699;SDS011;21818;51.078;12.108;2024-03-23T06:32:57;11.88;;;4.93;;
35699;SDS011;21818;51.078;12.108;2024-03-23T06:35:22;12.32;;;4.50;;
35699;SDS011;21818;51.078;12.108;2024-03-23T06:37:48;11.05;;;4.40;;
35699;SDS011;21818;51.078;12.108;2024-03-23T06:40:14;10.73;;;4.68;;
35699;SDS011;21818;51.078;12.108;2024-03-23T06:42:39;10.93;;;5.03;;
35699;SDS011;21818;51.078;12.108;2024-03-23T06:45:05;11.82;;;4.93;;
35699;SDS011;21818;51.078;12.108;2024-03-23T06:47:31;12.32;;;5.20;;
35699;SDS011;21818;51.078;12.108;2024-03-23T06:49:57;13.07;;;4.63;;
35699;SDS011;21818;51.078;12.108;2024-03-23T06:52:27;10.85;;;4.95;;
35699;SDS011;21818;51.078;12.108;2024-03-23T06:54:53;12.88;;;4.72;;
35699;SDS011;21818;51.078;12.108;2024-03-23T06:57:18;11.27;;;5.20;;
35699;SDS011;21818;51.078;12.108;2024-03-23T06:59:44;10.60;;;4.57;;
35699;SDS011;21818;51.078;12.108;2024-03-23T07:02:10;14.48;;;5.35;;
35699;SDS011;21818;51.078;12.108;2024-03-23T07:04:35;14.88;;;5.03;;
35699;SDS011;21818;51.078;12.108;2024-03-23T07:07:01;16.23;;;4.38;;
35699;SDS011;21818;51.078;12.108;2024-03-23T07:09:28;10.98;;;4.90;;
35699;SDS011;21818;51.078;12.108;2024-03-23T07:11:54;13.45;;;4.95;;
35699;SDS011;21818;51.078;12.108;2024-03-23T07:14:21;17.60;;;5.00;;
35699;SDS011;21818;51.078;12.108;2024-03-23T07:16:47;11.32;;;5.28;;
35699;SDS011;21818;51.078;12.108;2024-03-23T07:19:14;9.60;;;4.50;;
35699;SDS011;21818;51.078;12.108;2024-03-23T07:21:41;13.45;;;5.07;;
35699;SDS011;21818;51.078;12.108;2024-03-23T07:24:27;9.77;;;4.80;;
35699;SDS011;21818;51.078;12.108;2024-03-23T07:26:52;13.05;;;5.05;;
35699;SDS011;21818;51.078;12.108;2024-03-23T07:29:19;12.30;;;5.38;;
35699;SDS011;21818;51.078;12.108;2024-03-23T07:31:44;10.57;;;4.78;;
35699;SDS011;21818;51.078;12.108;2024-03-23T07:34:10;12.80;;;4.65;;
35699;SDS011;21818;51.078;12.108;2024-03-23T07:36:35;12.13;;;4.32;;
35699;SDS011;21818;51.078;12.108;2024-03-23T07:39:01;10.70;;;4.53;;
35699;SDS011;21818;51.078;12.108;2024-03-23T07:41:26;9.05;;;3.70;;
35699;SDS011;21818;51.078;12.108;2024-03-23T07:43:53;10.43;;;4.15;;
35699;SDS011;21818;51.078;12.108;2024-03-23T07:46:19;12.35;;;5.30;;
35699;SDS011;21818;51.078;12.108;2024-03-23T07:48:45;9.75;;;4.80;;
35699;SDS011;21818;51.078;12.108;2024-03-23T07:51:18;7.50;;;3.67;;
35699;SDS011;21818;51.078;12.108;2024-03-23T07:53:47;8.27;;;2.50;;
35699;SDS011;21818;51.078;12.108;2024-03-23T07:56:14;4.88;;;2.10;;
35699;SDS011;21818;51.078;12.108;2024-03-23T07:58:40;3.42;;;1.60;;
35699;SDS011;21818;51.078;12.108;2024-03-23T08:01:07;3.40;;;1.83;;
35699;SDS011;21818;51.078;12.108;2024-03-23T08:03:34;3.42;;;1.48;;
35699;SDS011;21818;51.078;12.108;2024-03-23T08:06:11;4.22;;;1.70;;
35699;SDS011;21818;51.078;12.108;2024-03-23T08:08:38;5.15;;;1.77;;
35699;SDS011;21818;51.078;12.108;2024-03-23T08:11:04;3.47;;;1.30;;
35699;SDS011;21818;51.078;12.108;2024-03-23T08:13:30;4.68;;;1.58;;
35699;SDS011;21818;51.078;12.108;2024-03-23T08:15:59;3.33;;;1.63;;
35699;SDS011;21818;51.078;12.108;2024-03-23T08:18:26;5.57;;;1.67;;
35699;SDS011;21818;51.078;12.108;2024-03-23T08:20:59;2.22;;;1.38;;
35699;SDS011;21818;51.078;12.108;2024-03-23T08:23:26;3.38;;;1.25;;
35699;SDS011;21818;51.078;12.108;2024-03-23T08:26:02;3.05;;;1.30;;
35699;SDS011;21818;51.078;12.108;2024-03-23T08:28:28;6.38;;;1.35;;
35699;SDS011;21818;51.078;12.108;2024-03-23T08:30:55;1.73;;;1.10;;
35699;SDS011;21818;51.078;12.108;2024-03-23T08:33:21;4.90;;;1.40;;
35699;SDS011;21818;51.078;12.108;2024-03-23T08:36:00;2.58;;;1.10;;
35699;SDS011;21818;51.078;12.108;2024-03-23T08:38:28;2.75;;;1.30;;
35699;SDS011;21818;51.078;12.108;2024-03-23T08:40:57;2.63;;;1.40;;
35699;SDS011;21818;51.078;12.108;2024-03-23T08:43:24;4.03;;;1.00;;
35699;SDS011;21818;51.078;12.108;2024-03-23T08:45:50;2.35;;;1.17;;
35699;SDS011;21818;51.078;12.108;2024-03-23T08:48:17;5.40;;;1.40;;
35699;SDS011;21818;51.078;12.108;2024-03-23T08:50:43;2.20;;;1.52;;
35699;SDS011;21818;51.078;12.108;2024-03-23T08:53:08;1.33;;;0.80;;
35699;SDS011;21818;51.078;12.108;2024-03-23T08:55:34;1.98;;;1.00;;
35699;SDS011;21818;51.078;12.108;2024-03-23T08:58:00;2.45;;;1.13;;
35699;SDS011;21818;51.078;12.108;2024-03-23T09:00:26;2.95;;;1.42;;
35699;SDS011;21818;51.078;12.108;2024-03-23T09:02:51;2.08;;;1.00;;
35699;SDS011;21818;51.078;12.108;2024-03-23T09:05:18;2.22;;;1.05;;
35699;SDS011;21818;51.078;12.108;2024-03-23T09:07:44;3.05;;;1.35;;
35699;SDS011;21818;51.078;12.108;2024-03-23T09:10:09;1.83;;;0.90;;
35699;SDS011;21818;51.078;12.108;2024-03-23T09:12:35;2.58;;;1.30;;
35699;SDS011;21818;51.078;12.108;2024-03-23T09:15:00;2.53;;;0.90;;
35699;SDS011;21818;51.078;12.108;2024-03-23T09:17:26;4.38;;;1.35;;
35699;SDS011;21818;51.078;12.108;2024-03-23T09:19:51;1.40;;;0.90;;
35699;SDS011;21818;51.078;12.108;2024-03-23T09:22:17;2.63;;;0.68;;
35699;SDS011;21818;51.078;12.108;2024-03-23T09:24:42;1.42;;;0.70;;
35699;SDS011;21818;51.078;12.108;2024-03-23T09:27:08;0.85;;;0.70;;
35699;SDS011;21818;51.078;12.108;2024-03-23T09:29:33;3.78;;;0.90;;
35699;SDS011;21818;51.078;12.108;2024-03-23T09:31:59;2.78;;;1.08;;
35699;SDS011;21818;51.078;12.108;2024-03-23T09:34:24;1.50;;;0.77;;
35699;SDS011;21818;51.078;12.108;2024-03-23T09:36:51;1.15;;;0.70;;
35699;SDS011;21818;51.078;12.108;2024-03-23T09:39:17;2.40;;;1.10;;
35699;SDS011;21818;51.078;12.108;2024-03-23T09:41:43;1.60;;;0.90;;
35699;SDS011;21818;51.078;12.108;2024-03-23T09:44:08;2.00;;;0.52;;
35699;SDS011;21818;51.078;12.108;2024-03-23T09:46:34;2.13;;;0.82;;
35699;SDS011;21818;51.078;12.108;2024-03-23T09:49:01;1.67;;;0.82;;
35699;SDS011;21818;51.078;12.108;2024-03-23T09:51:29;0.93;;;0.77;;
35699;SDS011;21818;51.078;12.108;2024-03-23T09:53:55;2.63;;;0.88;;
35699;SDS011;21818;51.078;12.108;2024-03-23T09:56:22;1.20;;;0.60;;
35699;SDS011;21818;51.078;12.108;2024-03-23T09:58:48;2.55;;;0.90;;
35699;SDS011;21818;51.078;12.108;2024-03-23T10:01:14;1.35;;;0.80;;
35699;SDS011;21818;51.078;12.108;2024-03-23T10:03:43;2.17;;;0.75;;
35699;SDS011;21818;51.078;12.108;2024-03-23T10:06:12;0.70;;;0.60;;
35699;SDS011;21818;51.078;12.108;2024-03-23T10:08:37;1.00;;;0.90;;
35699;SDS011;21818;51.078;12.108;2024-03-23T10:11:36;1.05;;;0.65;;
35699;SDS011;21818;51.078;12.108;2024-03-23T10:13:56;1.52;;;0.80;;
35699;SDS011;21818;51.078;12.108;2024-03-23T10:16:22;0.70;;;0.70;;
35699;SDS011;21818;51.078;12.108;2024-03-23T10:18:49;1.65;;;0.50;;
35699;SDS011;21818;51.078;12.108;2024-03-23T10:21:15;2.03;;;0.80;;
35699;SDS011;21818;51.078;12.108;2024-03-23T10:23:41;0.77;;;0.60;;
35699;SDS011;21818;51.078;12.108;2024-03-23T10:26:21;1.20;;;0.68;;
35699;SDS011;21818;51.078;12.108;2024-03-23T10:31:23;1.02;;;0.70;;
35699;SDS011;21818;51.078;12.108;2024-03-23T10:33:48;1.67;;;0.75;;
35699;SDS011;21818;51.078;12.108;2024-03-23T10:36:14;1.85;;;0.65;;
35699;SDS011;21818;51.078;12.108;2024-03-23T10:38:41;0.75;;;0.73;;
35699;SDS011;21818;51.078;12.108;2024-03-23T10:41:08;1.10;;;0.65;;
35699;SDS011;21818;51.078;12.108;2024-03-23T10:43:35;1.65;;;0.70;;
35699;SDS011;21818;51.078;12.108;2024-03-23T10:46:02;1.58;;;0.68;;
35699;SDS011;21818;51.078;12.108;2024-03-23T10:48:28;0.77;;;0.60;;
35699;SDS011;21818;51.078;12.108;2024-03-23T10:50:54;1.35;;;0.65;;
35699;SDS011;21818;51.078;12.108;2024-03-23T10:53:25;1.80;;;0.70;;
35699;SDS011;21818;51.078;12.108;2024-03-23T10:58:18;2.15;;;0.68;;
35699;SDS011;21818;51.078;12.108;2024-03-23T11:00:46;1.20;;;0.50;;
35699;SDS011;21818;51.078;12.108;2024-03-23T11:05:56;1.10;;;0.55;;
35699;SDS011;21818;51.078;12.108;2024-03-23T11:08:40;1.00;;;0.73;;
35699;SDS011;21818;51.078;12.108;2024-03-23T11:13:50;1.20;;;0.70;;
35699;SDS011;21818;51.078;12.108;2024-03-23T11:16:17;0.70;;;0.50;;
35699;SDS011;21818;51.078;12.108;2024-03-23T11:18:50;2.63;;;0.50;;
35699;SDS011;21818;51.078;12.108;2024-03-23T11:24:17;1.10;;;0.68;;
35699;SDS011;21818;51.078;12.108;2024-03-23T11:26:43;1.00;;;0.70;;
35699;SDS011;21818;51.078;12.108;2024-03-23T11:29:14;1.08;;;0.55;;
35699;SDS011;21818;51.078;12.108;2024-03-23T11:34:12;2.28;;;0.95;;
35699;SDS011;21818;51.078;12.108;2024-03-23T11:36:40;0.70;;;0.43;;
35699;SDS011;21818;51.078;12.108;2024-03-23T11:39:18;0.73;;;0.60;;
35699;SDS011;21818;51.078;12.108;2024-03-23T11:41:51;0.95;;;0.50;;
35699;SDS011;21818;51.078;12.108;2024-03-23T11:44:25;0.88;;;0.50;;
35699;SDS011;21818;51.078;12.108;2024-03-23T11:46:51;1.13;;;0.60;;
35699;SDS011;21818;51.078;12.108;2024-03-23T11:49:27;1.00;;;0.60;;
35699;SDS011;21818;51.078;12.108;2024-03-23T11:51:55;0.85;;;0.55;;
35699;SDS011;21818;51.078;12.108;2024-03-23T11:54:22;0.82;;;0.82;;
35699;SDS011;21818;51.078;12.108;2024-03-23T11:56:58;1.88;;;0.85;;
35699;SDS011;21818;51.078;12.108;2024-03-23T11:59:33;1.67;;;0.47;;
35699;SDS011;21818;51.078;12.108;2024-03-23T12:01:59;1.15;;;0.40;;
35699;SDS011;21818;51.078;12.108;2024-03-23T12:04:28;0.85;;;0.45;;
35699;SDS011;21818;51.078;12.108;2024-03-23T12:09:46;1.85;;;0.47;;
35699;SDS011;21818;51.078;12.108;2024-03-23T12:12:16;1.92;;;0.70;;
35699;SDS011;21818;51.078;12.108;2024-03-23T12:14:42;1.08;;;0.52;;
35699;SDS011;21818;51.078;12.108;2024-03-23T12:17:26;1.02;;;0.50;;
35699;SDS011;21818;51.078;12.108;2024-03-23T12:19:51;2.92;;;1.02;;
35699;SDS011;21818;51.078;12.108;2024-03-23T12:22:20;1.70;;;0.50;;
35699;SDS011;21818;51.078;12.108;2024-03-23T12:24:46;1.83;;;0.60;;
35699;SDS011;21818;51.078;12.108;2024-03-23T12:27:11;2.13;;;0.68;;
35699;SDS011;21818;51.078;12.108;2024-03-23T12:29:37;3.60;;;0.80;;
35699;SDS011;21818;51.078;12.108;2024-03-23T12:32:04;1.10;;;0.60;;
35699;SDS011;21818;51.078;12.108;2024-03-23T12:34:30;1.00;;;0.65;;
35699;SDS011;21818;51.078;12.108;2024-03-23T12:36:56;1.67;;;0.65;;
35699;SDS011;21818;51.078;12.108;2024-03-23T12:39:21;1.65;;;0.60;;
35699;SDS011;21818;51.078;12.108;2024-03-23T12:41:47;1.73;;;0.90;;
35699;SDS011;21818;51.078;12.108;2024-03-23T12:44:14;2.15;;;0.90;;
35699;SDS011;21818;51.078;12.108;2024-03-23T12:46:40;2.53;;;0.95;;
35699;SDS011;21818;51.078;12.108;2024-03-23T12:49:07;1.35;;;0.68;;
35699;SDS011;21818;51.078;12.108;2024-03-23T12:51:32;1.45;;;0.50;;
35699;SDS011;21818;51.078;12.108;2024-03-23T12:53:58;5.90;;;1.00;;
35699;SDS011;21818;51.078;12.108;2024-03-23T12:56:24;2.38;;;0.80;;
35699;SDS011;21818;51.078;12.108;2024-03-23T12:58:49;1.70;;;0.65;;
35699;SDS011;21818;51.078;12.108;2024-03-23T13:01:16;2.38;;;1.00;;
35699;SDS011;21818;51.078;12.108;2024-03-23T13:03:42;1.63;;;0.70;;
35699;SDS011;21818;51.078;12.108;2024-03-23T13:06:09;1.52;;;1.00;;
35699;SDS011;21818;51.078;12.108;2024-03-23T13:08:35;2.65;;;1.00;;
35699;SDS011;21818;51.078;12.108;2024-03-23T13:11:01;1.48;;;0.80;;
35699;SDS011;21818;51.078;12.108;2024-03-23T13:13:26;2.95;;;0.98;;
35699;SDS011;21818;51.078;12.108;2024-03-23T13:15:52;2.45;;;0.90;;
35699;SDS011;21818;51.078;12.108;2024-03-23T13:18:17;2.47;;;0.82;;
35699;SDS011;21818;51.078;12.108;2024-03-23T13:20:43;2.55;;;0.90;;
35699;SDS011;21818;51.078;12.108;2024-03-23T13:23:09;2.42;;;0.95;;
35699;SDS011;21818;51.078;12.108;2024-03-23T13:25:34;1.45;;;0.70;;
35699;SDS011;21818;51.078;12.108;2024-03-23T13:28:01;0.80;;;0.60;;
35699;SDS011;21818;51.078;12.108;2024-03-23T13:30:27;1.92;;;1.00;;
35699;SDS011;21818;51.078;12.108;2024-03-23T13:32:52;3.00;;;1.00;;
35699;SDS011;21818;51.078;12.108;2024-03-23T13:35:18;3.05;;;0.90;;
35699;SDS011;21818;51.078;12.108;2024-03-23T13:37:44;2.42;;;0.82;;
35699;SDS011;21818;51.078;12.108;2024-03-23T13:40:10;1.23;;;0.80;;
35699;SDS011;21818;51.078;12.108;2024-03-23T13:42:36;1.83;;;0.70;;
35699;SDS011;21818;51.078;12.108;2024-03-23T13:45:02;0.85;;;0.63;;
35699;SDS011;21818;51.078;12.108;2024-03-23T13:47:27;2.00;;;0.70;;
35699;SDS011;21818;51.078;12.108;2024-03-23T13:49:53;1.42;;;0.70;;
35699;SDS011;21818;51.078;12.108;2024-03-23T13:52:18;1.00;;;0.57;;
35699;SDS011;21818;51.078;12.108;2024-03-23T13:54:47;1.65;;;0.80;;
35699;SDS011;21818;51.078;12.108;2024-03-23T13:57:13;1.48;;;0.65;;
35699;SDS011;21818;51.078;12.108;2024-03-23T13:59:39;1.13;;;0.63;;
35699;SDS011;21818;51.078;12.108;2024-03-23T14:02:05;2.00;;;0.60;;
35699;SDS011;21818;51.078;12.108;2024-03-23T14:04:30;0.95;;;0.57;;
35699;SDS011;21818;51.078;12.108;2024-03-23T14:06:56;2.95;;;0.80;;
35699;SDS011;21818;51.078;12.108;2024-03-23T14:09:23;1.83;;;0.90;;
35699;SDS011;21818;51.078;12.108;2024-03-23T14:11:50;2.17;;;0.60;;
35699;SDS011;21818;51.078;12.108;2024-03-23T14:14:16;1.70;;;0.70;;
35699;SDS011;21818;51.078;12.108;2024-03-23T14:16:42;1.75;;;0.80;;
35699;SDS011;21818;51.078;12.108;2024-03-23T14:19:08;0.63;;;0.52;;
35699;SDS011;21818;51.078;12.108;2024-03-23T14:21:33;1.42;;;0.50;;
35699;SDS011;21818;51.078;12.108;2024-03-23T14:24:02;1.95;;;0.70;;
35699;SDS011;21818;51.078;12.108;2024-03-23T14:26:27;1.00;;;0.50;;
35699;SDS011;21818;51.078;12.108;2024-03-23T14:28:53;0.95;;;0.63;;
35699;SDS011;21818;51.078;12.108;2024-03-23T14:31:19;1.85;;;0.90;;
35699;SDS011;21818;51.078;12.108;2024-03-23T14:33:44;1.42;;;0.88;;
35699;SDS011;21818;51.078;12.108;2024-03-23T14:36:15;1.13;;;0.70;;
35699;SDS011;21818;51.078;12.108;2024-03-23T14:38:42;1.15;;;0.60;;
35699;SDS011;21818;51.078;12.108;2024-03-23T14:41:11;1.48;;;0.50;;
35699;SDS011;21818;51.078;12.108;2024-03-23T14:43:37;1.65;;;0.50;;
35699;SDS011;21818;51.078;12.108;2024-03-23T14:46:12;1.58;;;0.60;;
35699;SDS011;21818;51.078;12.108;2024-03-23T14:48:39;2.03;;;0.90;;
35699;SDS011;21818;51.078;12.108;2024-03-23T14:51:06;0.98;;;0.50;;
35699;SDS011;21818;51.078;12.108;2024-03-23T14:53:35;1.73;;;0.57;;
35699;SDS011;21818;51.078;12.108;2024-03-23T14:56:04;1.13;;;0.70;;
35699;SDS011;21818;51.078;12.108;2024-03-23T14:58:30;1.50;;;0.63;;
35699;SDS011;21818;51.078;12.108;2024-03-23T15:01:02;1.23;;;0.63;;
35699;SDS011;21818;51.078;12.108;2024-03-23T15:03:28;1.75;;;0.90;;
35699;SDS011;21818;51.078;12.108;2024-03-23T15:05:55;1.95;;;0.80;;
35699;SDS011;21818;51.078;12.108;2024-03-23T15:08:21;1.35;;;0.57;;
35699;SDS011;21818;51.078;12.108;2024-03-23T15:10:46;1.40;;;0.65;;
35699;SDS011;21818;51.078;12.108;2024-03-23T15:13:12;0.85;;;0.50;;
35699;SDS011;21818;51.078;12.108;2024-03-23T15:15:39;1.65;;;0.60;;
35699;SDS011;21818;51.078;12.108;2024-03-23T15:18:06;1.52;;;0.70;;
35699;SDS011;21818;51.078;12.108;2024-03-23T15:20:32;1.83;;;0.60;;
35699;SDS011;21818;51.078;12.108;2024-03-23T15:23:00;1.00;;;0.63;;
35699;SDS011;21818;51.078;12.108;2024-03-23T15:25:27;0.93;;;0.70;;
35699;SDS011;21818;51.078;12.108;2024-03-23T15:27:52;1.55;;;0.52;;
35699;SDS011;21818;51.078;12.108;2024-03-23T15:30:19;2.78;;;0.82;;
35699;SDS011;21818;51.078;12.108;2024-03-23T15:32:45;1.45;;;0.68;;
35699;SDS011;21818;51.078;12.108;2024-03-23T15:35:12;0.98;;;0.50;;
35699;SDS011;21818;51.078;12.108;2024-03-23T15:37:37;2.20;;;0.55;;